createdAt,value
2019-02-04T00:01:55.299Z,8.57
2019-02-04T00:05:00.435Z,10.60
2019-02-04T00:08:05.683Z,9.10
2019-02-04T00:11:11.384Z,9.47
2019-02-04T00:14:19.231Z,8.40
2019-02-04T00:17:28.291Z,12.20
2019-02-04T00:20:35.024Z,9.93
2019-02-04T00:23:44.768Z,12.80
2019-02-04T00:26:51.962Z,7.83
2019-02-04T00:29:58.353Z,12.53
2019-02-04T00:33:04.863Z,8.83
2019-02-04T00:36:10.079Z,8.77
2019-02-04T00:39:15.260Z,8.67
2019-02-04T00:42:20.496Z,10.03
2019-02-04T00:45:25.612Z,10.60
2019-02-04T00:48:30.738Z,8.80
2019-02-04T00:51:35.847Z,9.87
2019-02-04T00:54:40.973Z,9.70
2019-02-04T00:57:46.143Z,9.77
2019-02-04T01:00:51.268Z,9.50
2019-02-04T01:03:56.392Z,10.67
2019-02-04T01:07:01.595Z,9.67
2019-02-04T01:10:07.407Z,10.67
2019-02-04T01:13:12.848Z,11.07
2019-02-04T01:16:18.063Z,9.50
2019-02-04T01:19:23.259Z,9.43
2019-02-04T01:22:28.402Z,9.40
2019-02-04T01:25:33.685Z,10.53
2019-02-04T01:28:38.822Z,9.03
2019-02-04T01:31:43.933Z,11.53
2019-02-04T01:34:55.895Z,8.60
2019-02-04T01:38:00.927Z,9.70
2019-02-04T01:41:06.189Z,8.50
2019-02-04T01:44:11.299Z,10.57
2019-02-04T01:47:16.519Z,10.73
2019-02-04T01:50:22.840Z,9.60
2019-02-04T01:53:27.939Z,8.20
2019-02-04T01:56:32.979Z,8.47
2019-02-04T01:59:38.035Z,12.10
2019-02-04T02:02:43.273Z,9.17
2019-02-04T02:05:48.589Z,9.80
2019-02-04T02:08:53.807Z,9.03
2019-02-04T02:11:58.865Z,10.73
2019-02-04T02:15:04.521Z,8.93
2019-02-04T02:18:09.706Z,7.80
2019-02-04T02:21:14.824Z,9.85
2019-02-04T02:24:19.876Z,9.43
2019-02-04T02:27:24.859Z,10.95
2019-02-04T02:30:31.822Z,8.10
2019-02-04T02:33:36.948Z,11.53
2019-02-04T02:36:42.377Z,11.48
2019-02-04T02:39:47.596Z,13.40
2019-02-04T02:42:52.799Z,8.43
2019-02-04T02:45:58.184Z,13.30
2019-02-04T02:49:03.362Z,8.58
2019-02-04T02:52:08.491Z,9.25
2019-02-04T02:55:14.331Z,22.27
2019-02-04T02:58:19.400Z,12.68
2019-02-04T03:01:24.596Z,11.33
2019-02-04T03:04:29.791Z,15.57
2019-02-04T03:07:34.877Z,15.30
2019-02-04T03:10:40.099Z,14.63
2019-02-04T03:13:45.351Z,12.10
2019-02-04T03:16:50.762Z,13.27
2019-02-04T03:19:55.889Z,16.73
2019-02-04T03:23:01.084Z,10.70
2019-02-04T03:26:06.272Z,10.10
2019-02-04T03:29:11.459Z,9.40
2019-02-04T03:32:16.514Z,10.13
2019-02-04T03:35:21.691Z,9.60
2019-02-04T03:38:26.816Z,8.38
2019-02-04T03:41:32.016Z,10.23
2019-02-04T03:44:37.175Z,12.50
2019-02-04T03:47:42.499Z,10.30
2019-02-04T03:50:47.663Z,9.40
2019-02-04T03:53:52.803Z,10.28
2019-02-04T03:56:58.008Z,8.63
2019-02-04T04:00:03.229Z,12.30
2019-02-04T04:03:08.406Z,12.37
2019-02-04T04:06:13.551Z,11.83
2019-02-04T04:09:18.693Z,10.53
2019-02-04T04:12:23.755Z,8.18
2019-02-04T04:15:28.932Z,9.70
2019-02-04T04:18:34.052Z,12.80
2019-02-04T04:21:39.240Z,11.78
2019-02-04T04:24:44.371Z,12.20
2019-02-04T04:27:49.863Z,11.12
2019-02-04T04:30:54.938Z,9.38
2019-02-04T04:34:00.084Z,11.85
2019-02-04T04:37:05.202Z,11.65
2019-02-04T04:40:10.632Z,7.50
2019-02-04T04:43:15.691Z,10.30
2019-02-04T04:46:20.883Z,9.60
2019-02-04T04:49:26.028Z,9.25
2019-02-04T04:52:31.299Z,10.15
2019-02-04T04:55:36.407Z,8.63
2019-02-04T04:58:41.912Z,9.55
2019-02-04T05:01:47.054Z,8.75
2019-02-04T05:04:52.177Z,10.75
2019-02-04T05:07:57.530Z,8.50
2019-02-04T05:11:02.704Z,9.40
2019-02-04T05:14:07.910Z,9.63
2019-02-04T05:17:13.450Z,10.93
2019-02-04T05:20:19.272Z,9.78
2019-02-04T05:23:24.418Z,10.05
2019-02-04T05:26:29.533Z,10.78
2019-02-04T05:29:34.848Z,11.70
2019-02-04T05:32:39.987Z,10.20
2019-02-04T05:35:45.122Z,9.88
2019-02-04T05:38:50.523Z,15.48
2019-02-04T05:41:55.686Z,23.12
2019-02-04T05:45:00.724Z,14.47
2019-02-04T05:48:05.927Z,13.68
2019-02-04T05:51:11.055Z,12.00
2019-02-04T05:54:16.227Z,15.68
2019-02-04T05:57:21.205Z,12.50
2019-02-04T06:00:43.040Z,15.38
2019-02-04T06:03:48.177Z,18.67
2019-02-04T06:06:53.430Z,14.83
2019-02-04T06:09:58.779Z,13.62
2019-02-04T06:13:04.358Z,10.80
2019-02-04T06:16:09.562Z,13.72
2019-02-04T06:19:14.701Z,21.17
2019-02-04T06:22:20.044Z,14.10
2019-02-04T06:25:25.189Z,13.18
2019-02-04T06:28:30.345Z,15.45
2019-02-04T06:31:35.547Z,15.90
2019-02-04T06:34:40.878Z,12.13
2019-02-04T06:37:46.912Z,15.32
2019-02-04T06:40:52.412Z,13.03
2019-02-04T06:43:57.536Z,18.12
2019-02-04T06:47:02.675Z,12.30
2019-02-04T06:50:09.652Z,14.53
2019-02-04T06:53:15.072Z,11.78
2019-02-04T06:56:20.211Z,19.40
2019-02-04T06:59:25.547Z,16.55
2019-02-04T07:02:30.953Z,20.60
2019-02-04T07:05:43.533Z,19.80
2019-02-04T07:08:42.859Z,14.38
2019-02-04T07:11:47.968Z,13.72
2019-02-04T07:14:53.040Z,16.37
2019-02-04T07:18:01.638Z,30.88
2019-02-04T07:21:05.098Z,38.08
2019-02-04T07:24:10.297Z,36.25
2019-02-04T07:27:15.487Z,34.98
2019-02-04T07:30:22.360Z,26.97
2019-02-04T07:33:27.787Z,20.45
2019-02-04T07:36:32.870Z,20.37
2019-02-04T07:39:38.093Z,22.55
2019-02-04T07:42:44.231Z,15.43
2019-02-04T07:45:49.304Z,16.60
2019-02-04T07:48:54.436Z,15.72
2019-02-04T07:51:59.579Z,16.10
2019-02-04T07:55:05.107Z,17.12
2019-02-04T07:58:10.231Z,17.10
2019-02-04T08:01:15.325Z,20.35
2019-02-04T08:04:20.543Z,16.27
2019-02-04T08:07:25.780Z,21.40
2019-02-04T08:10:31.534Z,13.85
2019-02-04T08:13:37.125Z,14.80
2019-02-04T08:16:42.178Z,18.48
2019-02-04T08:19:47.657Z,17.80
2019-02-04T08:22:52.787Z,17.15
2019-02-04T08:25:58.025Z,15.38
2019-02-04T08:29:03.228Z,19.00
2019-02-04T08:32:08.452Z,14.40
2019-02-04T08:35:13.775Z,15.55
2019-02-04T08:38:19.000Z,19.42
2019-02-04T08:41:24.200Z,17.62
2019-02-04T08:44:29.348Z,15.72
2019-02-04T08:47:34.560Z,14.18
2019-02-04T08:50:39.803Z,17.50
2019-02-04T08:53:45.005Z,14.68
2019-02-04T08:56:50.240Z,17.60
2019-02-04T08:59:55.417Z,15.08
2019-02-04T09:03:00.612Z,19.07
2019-02-04T09:06:05.935Z,17.82
2019-02-04T09:09:11.236Z,15.98
2019-02-04T09:12:16.750Z,16.52
2019-02-04T09:15:22.148Z,19.17
2019-02-04T09:18:27.303Z,18.20
2019-02-04T09:21:32.716Z,19.05
2019-02-04T09:24:37.791Z,17.77
2019-02-04T09:27:42.872Z,14.95
2019-02-04T09:30:48.306Z,20.75
2019-02-04T09:33:53.545Z,18.82
2019-02-04T09:36:58.877Z,20.00
2019-02-04T09:40:04.397Z,17.10
2019-02-04T09:43:09.788Z,17.07
2019-02-04T09:46:14.992Z,16.93
2019-02-04T09:49:20.207Z,14.47
2019-02-04T09:52:25.415Z,17.93
2019-02-04T09:55:34.983Z,16.63
2019-02-04T09:58:40.145Z,15.23
2019-02-04T10:01:45.332Z,15.00
2019-02-04T10:04:50.483Z,19.83
2019-02-04T10:07:55.541Z,17.47
2019-02-04T10:11:00.775Z,17.20
2019-02-04T10:14:06.112Z,17.67
2019-02-04T10:17:11.304Z,13.97
2019-02-04T10:20:16.607Z,18.00
2019-02-04T10:23:21.792Z,15.27
2019-02-04T10:26:26.963Z,15.90
2019-02-04T10:29:32.081Z,12.80
2019-02-04T10:32:37.330Z,11.50
2019-02-04T10:35:42.728Z,14.20
2019-02-04T10:38:47.928Z,12.63
2019-02-04T10:41:53.510Z,14.20
2019-02-04T10:45:01.158Z,13.90
2019-02-04T10:48:06.598Z,17.57
2019-02-04T10:51:11.831Z,13.13
2019-02-04T10:54:17.069Z,12.13
2019-02-04T10:57:22.241Z,14.80
2019-02-04T11:00:30.215Z,14.13
2019-02-04T11:03:35.421Z,15.97
2019-02-04T11:06:40.615Z,14.93
2019-02-04T11:09:45.784Z,12.60
2019-02-04T11:12:51.295Z,12.90
2019-02-04T11:15:56.547Z,12.50
2019-02-04T11:19:01.707Z,20.17
2019-02-04T11:22:07.028Z,12.47
2019-02-04T11:25:12.400Z,10.20
2019-02-04T11:28:17.680Z,11.80
2019-02-04T11:31:22.970Z,11.30
2019-02-04T11:34:28.143Z,14.50
2019-02-04T11:37:33.357Z,10.93
2019-02-04T11:40:39.256Z,9.00
2019-02-04T11:43:44.460Z,8.63
2019-02-04T11:46:49.684Z,8.73
2019-02-04T11:49:54.811Z,7.97
2019-02-04T11:53:00.242Z,11.73
2019-02-04T11:56:05.374Z,8.97
2019-02-04T11:59:10.513Z,7.67
2019-02-04T12:02:15.620Z,10.60
2019-02-04T12:05:21.409Z,10.47
2019-02-04T12:08:26.559Z,7.97
2019-02-04T12:11:31.607Z,7.93
2019-02-04T12:14:36.748Z,7.13
2019-02-04T12:17:41.947Z,8.33
2019-02-04T12:20:47.253Z,8.07
2019-02-04T12:23:52.446Z,7.47
2019-02-04T12:26:57.572Z,10.83
2019-02-04T12:30:02.684Z,6.50
2019-02-04T12:33:09.858Z,5.57
2019-02-04T12:36:15.066Z,4.53
2019-02-04T12:39:21.851Z,8.20
2019-02-04T12:42:26.992Z,6.90
2019-02-04T12:45:33.375Z,5.47
2019-02-04T12:48:38.632Z,4.87
2019-02-04T12:51:43.810Z,5.73
2019-02-04T12:54:49.035Z,5.93
2019-02-04T12:57:54.263Z,11.07
2019-02-04T13:00:59.394Z,6.50
2019-02-04T13:04:05.374Z,10.67
2019-02-04T13:07:10.572Z,6.30
2019-02-04T13:10:16.735Z,5.30
2019-02-04T13:13:23.214Z,4.73
2019-02-04T13:16:28.395Z,4.67
2019-02-04T13:19:33.601Z,8.20
2019-02-04T13:22:38.780Z,6.37
2019-02-04T13:25:44.175Z,8.73
2019-02-04T13:28:49.217Z,6.10
2019-02-04T13:31:54.179Z,4.70
2019-02-04T13:34:59.349Z,6.03
2019-02-04T13:38:04.936Z,5.13
2019-02-04T13:41:11.892Z,6.93
2019-02-04T13:44:17.008Z,3.87
2019-02-04T13:47:22.080Z,4.40
2019-02-04T13:50:27.943Z,8.60
2019-02-04T13:53:33.079Z,4.87
2019-02-04T13:56:38.299Z,5.40
2019-02-04T13:59:43.495Z,4.30
2019-02-04T14:02:58.814Z,5.20
2019-02-04T14:05:56.504Z,5.93
2019-02-04T14:09:01.661Z,6.03
2019-02-04T14:12:06.769Z,9.73
2019-02-04T14:15:12.491Z,5.20
2019-02-04T14:18:17.609Z,6.33
2019-02-04T14:21:22.745Z,5.77
2019-02-04T14:24:27.816Z,6.37
2019-02-04T14:27:32.949Z,8.90
2019-02-04T14:30:38.696Z,6.57
2019-02-04T14:33:43.840Z,7.33
2019-02-04T14:36:48.940Z,6.00
2019-02-04T14:39:54.076Z,6.73
2019-02-04T14:43:23.288Z,5.93
2019-02-04T14:47:05.602Z,7.50
2019-02-04T14:50:23.704Z,8.60
2019-02-04T14:53:53.922Z,7.47
2019-02-04T14:57:26.046Z,7.53
2019-02-04T15:01:16.900Z,11.17
2019-02-04T15:04:55.976Z,8.13
2019-02-04T15:08:33.436Z,10.50
2019-02-04T15:11:53.615Z,8.07
2019-02-04T15:15:34.011Z,7.00
2019-02-04T15:19:07.968Z,9.30
2019-02-04T15:22:33.099Z,8.20
2019-02-04T15:25:55.015Z,9.33
2019-02-04T15:29:09.743Z,8.73
2019-02-04T15:32:49.023Z,9.47
2019-02-04T15:36:34.164Z,6.40
2019-02-04T15:39:55.444Z,9.83
2019-02-04T15:43:31.664Z,9.53
2019-02-04T15:47:02.266Z,10.50
2019-02-04T15:50:39.506Z,8.33
2019-02-04T15:53:44.551Z,9.80
2019-02-04T15:56:49.987Z,10.27
2019-02-04T15:59:55.203Z,7.77
2019-02-04T16:03:00.400Z,8.50
2019-02-04T16:06:05.518Z,6.73
2019-02-04T16:09:10.916Z,8.10
2019-02-04T16:12:16.067Z,8.63
2019-02-04T16:15:21.473Z,9.53
2019-02-04T16:18:26.712Z,10.50
2019-02-04T16:21:34.140Z,8.70
2019-02-04T16:24:39.100Z,10.33
2019-02-04T16:27:44.736Z,8.93
2019-02-04T16:30:50.034Z,12.17
2019-02-04T16:33:55.324Z,11.03
2019-02-04T16:37:00.836Z,8.70
2019-02-04T16:40:10.155Z,10.23
2019-02-04T16:43:14.518Z,13.60
2019-02-04T16:46:19.756Z,14.47
2019-02-04T16:49:25.104Z,8.00
2019-02-04T16:52:30.378Z,11.00
2019-02-04T16:55:35.636Z,11.97
2019-02-04T16:58:40.984Z,11.47
2019-02-04T17:01:46.200Z,13.37
2019-02-04T17:04:51.581Z,9.40
2019-02-04T17:07:57.337Z,12.40
2019-02-04T17:11:02.658Z,10.10
2019-02-04T17:14:08.224Z,11.80
2019-02-04T17:17:15.253Z,10.20
2019-02-04T17:20:23.268Z,9.20
2019-02-04T17:23:28.599Z,12.47
2019-02-04T17:26:33.941Z,13.73
2019-02-04T17:29:39.311Z,12.20
2019-02-04T17:32:44.497Z,10.60
2019-02-04T17:35:49.974Z,10.20
2019-02-04T17:38:55.248Z,17.63
2019-02-04T17:42:00.553Z,12.63
2019-02-04T17:45:07.379Z,17.17
2019-02-04T17:48:13.164Z,10.03
2019-02-04T17:51:18.328Z,10.87
2019-02-04T17:54:23.585Z,12.27
2019-02-04T17:57:28.836Z,12.23
2019-02-04T18:00:37.457Z,16.67
2019-02-04T18:03:42.724Z,11.53
2019-02-04T18:06:47.921Z,12.43
2019-02-04T18:09:53.272Z,12.67
2019-02-04T18:12:58.459Z,10.60
2019-02-04T18:16:04.291Z,15.30
2019-02-04T18:19:09.916Z,12.53
2019-02-04T18:22:15.248Z,14.70
2019-02-04T18:25:20.553Z,12.67
2019-02-04T18:28:25.829Z,12.10
2019-02-04T18:31:33.966Z,10.60
2019-02-04T18:34:38.116Z,14.07
2019-02-04T18:37:43.613Z,13.13
2019-02-04T18:40:48.914Z,14.50
2019-02-04T18:43:54.142Z,15.43
2019-02-04T18:46:59.400Z,12.47
2019-02-04T18:50:05.890Z,13.20
2019-02-04T18:53:11.560Z,14.33
2019-02-04T18:56:16.769Z,14.50
2019-02-04T18:59:21.976Z,14.90
2019-02-04T19:02:27.504Z,13.85
2019-02-04T19:05:32.837Z,13.30
2019-02-04T19:08:38.181Z,16.87
2019-02-04T19:11:43.579Z,16.43
2019-02-04T19:14:48.746Z,15.88
2019-02-04T19:17:56.297Z,14.45
2019-02-04T19:21:01.543Z,12.13
2019-02-04T19:24:09.758Z,13.95
2019-02-04T19:27:13.659Z,13.95
2019-02-04T19:30:49.643Z,13.70
2019-02-04T19:33:54.877Z,14.40
2019-02-04T19:37:00.435Z,15.40
2019-02-04T19:40:06.188Z,13.93
2019-02-04T19:43:11.340Z,15.18
2019-02-04T19:46:16.547Z,14.35
2019-02-04T19:49:21.732Z,15.48
2019-02-04T19:52:26.987Z,15.40
2019-02-04T19:55:32.206Z,11.95
2019-02-04T19:58:37.431Z,16.12
2019-02-04T20:01:42.531Z,15.83
2019-02-04T20:04:49.499Z,24.80
2019-02-04T20:07:54.792Z,17.73
2019-02-04T20:11:02.605Z,16.80
2019-02-04T20:14:07.028Z,18.17
2019-02-04T20:17:12.622Z,18.90
2019-02-04T20:20:17.797Z,20.57
2019-02-04T20:23:23.030Z,18.95
2019-02-04T20:26:28.168Z,16.65
2019-02-04T20:29:33.177Z,18.60
2019-02-04T20:32:38.411Z,21.33
2019-02-04T20:35:43.628Z,20.32
2019-02-04T20:38:48.912Z,15.72
2019-02-04T20:41:54.597Z,19.75
2019-02-04T20:45:00.902Z,20.75
2019-02-04T20:48:08.128Z,21.35
2019-02-04T20:51:13.477Z,24.20
2019-02-04T20:54:21.366Z,20.27
2019-02-04T20:57:25.759Z,21.05
2019-02-04T21:00:31.923Z,20.95
2019-02-04T21:03:38.281Z,21.62
2019-02-04T21:06:55.391Z,21.15
2019-02-04T21:09:51.297Z,21.07
2019-02-04T21:12:56.637Z,21.50
2019-02-04T21:16:02.036Z,22.35
2019-02-04T21:19:07.300Z,21.07
2019-02-04T21:22:12.884Z,26.70
2019-02-04T21:25:18.766Z,19.70
2019-02-04T21:28:23.952Z,20.95
2019-02-04T21:31:29.131Z,28.92
2019-02-04T21:34:34.392Z,21.70
2019-02-04T21:37:39.849Z,24.43
2019-02-04T21:40:45.122Z,23.00
2019-02-04T21:43:50.563Z,22.42
2019-02-04T21:46:55.843Z,21.27
2019-02-04T21:50:01.057Z,25.30
2019-02-04T21:53:06.257Z,26.45
2019-02-04T21:56:11.493Z,24.15
2019-02-04T21:59:16.607Z,24.07
2019-02-04T22:02:21.753Z,23.55
2019-02-04T22:05:28.390Z,27.10
2019-02-04T22:08:33.543Z,21.40
2019-02-04T22:11:38.859Z,24.75
2019-02-04T22:14:44.275Z,24.98
2019-02-04T22:17:49.677Z,25.57
2019-02-04T22:20:54.891Z,23.83
2019-02-04T22:24:00.004Z,25.37
2019-02-04T22:27:05.440Z,25.80
2019-02-04T22:30:13.940Z,27.95
2019-02-04T22:33:19.352Z,28.47
2019-02-04T22:36:24.757Z,26.50
2019-02-04T22:39:29.949Z,29.60
2019-02-04T22:42:35.096Z,23.10
2019-02-04T22:45:40.221Z,25.72
2019-02-04T22:48:45.460Z,25.95
2019-02-04T22:51:50.601Z,28.45
2019-02-04T22:54:55.876Z,24.43
2019-02-04T22:58:01.030Z,25.95
2019-02-04T23:01:37.419Z,29.50
2019-02-04T23:04:42.609Z,23.35
2019-02-04T23:07:47.766Z,29.90
2019-02-04T23:10:53.035Z,27.42
2019-02-04T23:13:58.178Z,26.95
2019-02-04T23:17:03.346Z,26.60
2019-02-04T23:20:08.976Z,27.98
2019-02-04T23:23:14.182Z,22.80
2019-02-04T23:26:19.416Z,27.70
2019-02-04T23:29:24.562Z,28.30
2019-02-04T23:32:30.090Z,25.27
2019-02-04T23:35:35.208Z,28.35
2019-02-04T23:38:40.427Z,25.48
2019-02-04T23:41:45.755Z,24.12
2019-02-04T23:44:50.887Z,26.60
2019-02-04T23:47:56.045Z,24.60
2019-02-04T23:51:03.389Z,25.43
2019-02-04T23:54:08.591Z,23.83
2019-02-04T23:57:13.887Z,24.00
